Time;durP1;ratioP1;P1;durP2;ratioP2;P2;SDS_P1;SDS_P2;PMS_P1;PMS_P2;Temp;Humidity;BMP_temperature;BMP_pressure;BME280_temperature;BME280_humidity;BME280_pressure;Samples;Min_cycle;Max_cycle;Signal;HPM_P1;HPM_P2
2023/07/16 00:01:12;;;;;;;8.55;5.18;;;;;;;26.92;49.72;99432.91;4433203;32;33509;-67
2023/07/16 00:03:39;;;;;;;8.43;4.87;;;;;;;26.90;49.79;99426.78;4435168;32;34454;-68
2023/07/16 00:06:07;;;;;;;11.82;6.22;;;;;;;26.80;50.03;99421.81;4429693;32;35094;-68
2023/07/16 00:08:35;;;;;;;8.57;5.40;;;;;;;26.85;50.07;99430.22;4434488;32;33942;-68
2023/07/16 00:11:03;;;;;;;7.30;5.12;;;;;;;26.77;50.37;99426.94;4435636;32;33563;-68
2023/07/16 00:13:31;;;;;;;8.27;5.20;;;;;;;26.80;50.02;99427.31;4436271;32;34411;-68
2023/07/16 00:15:59;;;;;;;7.10;5.30;;;;;;;26.76;50.10;99420.59;4435175;32;33934;-68
2023/07/16 00:18:26;;;;;;;6.50;4.93;;;;;;;26.83;49.92;99426.03;4435862;32;34825;-68
2023/07/16 00:20:54;;;;;;;8.30;4.93;;;;;;;26.81;50.23;99428.19;4434387;32;33637;-69
2023/07/16 00:23:21;;;;;;;12.40;5.43;;;;;;;26.85;50.16;99421.16;4434682;32;32903;-68
2023/07/16 00:25:49;;;;;;;10.05;5.03;;;;;;;26.77;50.17;99424.19;4436558;32;35279;-68
2023/07/16 00:28:17;;;;;;;8.18;5.28;;;;;;;26.64;50.30;99423.25;4430055;32;33826;-68
2023/07/16 00:30:44;;;;;;;7.75;5.28;;;;;;;26.73;50.00;99418.31;4434938;32;34612;-68
2023/07/16 00:33:12;;;;;;;8.07;4.82;;;;;;;26.81;49.79;99419.94;4434691;32;33041;-68
2023/07/16 00:35:47;;;;;;;9.57;5.18;;;;;;;26.74;49.88;99416.41;4435956;32;33709;-68
2023/07/16 00:38:16;;;;;;;9.23;5.05;;;;;;;26.70;49.90;99416.88;4435987;32;34712;-68
2023/07/16 00:40:44;;;;;;;10.35;4.93;;;;;;;26.66;50.01;99421.13;4434208;32;33716;-69
2023/07/16 00:43:12;;;;;;;6.82;5.15;;;;;;;26.64;50.20;99415.03;4451378;32;32662;-68
2023/07/16 00:45:41;;;;;;;9.57;6.37;;;;;;;26.67;50.11;99416.47;4446627;32;33445;-66
2023/07/16 00:48:09;;;;;;;6.78;4.35;;;;;;;26.58;50.26;99415.09;4448306;32;33460;-66
2023/07/16 00:50:39;;;;;;;7.62;4.95;;;;;;;26.54;50.26;99413.87;4435359;32;33439;-66
2023/07/16 00:53:07;;;;;;;10.05;5.07;;;;;;;26.55;50.16;99412.81;4447589;32;32759;-66
2023/07/16 00:55:36;;;;;;;5.03;3.78;;;;;;;26.49;50.38;99414.56;4447852;32;33759;-65
2023/07/16 00:58:06;;;;;;;7.82;4.15;;;;;;;26.53;50.44;99410.31;4442117;32;33776;-67
2023/07/16 01:00:37;;;;;;;10.70;5.07;;;;;;;26.60;50.22;99404.75;4446350;32;35063;-66
2023/07/16 01:03:09;;;;;;;7.90;4.78;;;;;;;26.59;50.28;99403.91;4447362;32;33127;-65
2023/07/16 01:05:52;;;;;;;7.53;4.37;;;;;;;26.64;50.26;99397.72;4448561;32;33656;-65
2023/07/16 01:08:31;;;;;;;8.75;4.90;;;;;;;26.62;50.12;99397.97;4443816;32;33810;-66
2023/07/16 01:11:00;;;;;;;5.90;3.80;;;;;;;26.52;50.41;99397.66;4432880;32;33690;-65
2023/07/16 01:13:30;;;;;;;8.18;4.50;;;;;;;26.45;50.59;99391.34;4430174;32;34646;-66
2023/07/16 01:15:57;;;;;;;8.55;5.25;;;;;;;26.50;50.48;99394.28;4432905;32;33744;-66
2023/07/16 01:18:25;;;;;;;7.95;5.40;;;;;;;26.42;50.62;99394.53;4432690;32;33658;-65
2023/07/16 01:20:52;;;;;;;7.00;5.05;;;;;;;26.45;50.48;99391.34;4432091;32;34748;-65
2023/07/16 01:23:43;;;;;;;6.70;4.50;;;;;;;26.43;50.56;99398.97;4431662;32;33095;-68
2023/07/16 01:26:32;;;;;;;6.05;4.28;;;;;;;26.35;50.87;99394.59;4401647;32;33591;-69
2023/07/16 01:29:33;;;;;;;9.15;4.82;;;;;;;26.25;51.02;99397.84;4393176;32;34978;-69
2023/07/16 01:32:04;;;;;;;7.37;4.47;;;;;;;26.26;51.00;99404.22;4386436;32;33856;-68
2023/07/16 01:34:33;;;;;;;6.20;4.10;;;;;;;26.20;51.17;99403.19;4385833;32;33891;-69
2023/07/16 01:37:02;;;;;;;8.65;4.78;;;;;;;26.28;50.82;99391.09;4374271;32;34462;-69
2023/07/16 01:39:30;;;;;;;10.65;4.00;;;;;;;26.22;51.08;99395.56;4372156;32;35291;-68
2023/07/16 01:41:58;;;;;;;14.80;4.87;;;;;;;26.19;50.92;99387.78;4394783;32;33871;-68
2023/07/16 01:44:26;;;;;;;6.95;4.00;;;;;;;26.02;51.53;99397.66;4402547;32;34066;-68
2023/07/16 01:47:05;;;;;;;7.05;4.78;;;;;;;25.95;51.65;99394.97;4401055;32;35048;-68
2023/07/16 01:49:33;;;;;;;12.63;5.93;;;;;;;26.02;51.45;99398.47;4399454;32;33681;-67
2023/07/16 01:52:02;;;;;;;6.12;3.80;;;;;;;25.97;51.76;99400.22;4401808;32;33594;-67
2023/07/16 01:54:30;;;;;;;7.75;4.62;;;;;;;26.00;51.58;99397.88;4402402;32;33357;-67
2023/07/16 01:56:58;;;;;;;10.23;4.68;;;;;;;26.01;51.53;99396.81;4402303;32;33278;-67
2023/07/16 01:59:25;;;;;;;10.27;4.87;;;;;;;26.04;51.37;99401.03;4401463;32;34031;-68
2023/07/16 02:01:54;;;;;;;6.78;4.28;;;;;;;25.97;51.34;99391.97;4402203;32;33520;-68
2023/07/16 02:04:22;;;;;;;9.38;5.47;;;;;;;25.98;51.23;99394.53;4413630;32;32880;-68
2023/07/16 02:06:50;;;;;;;7.28;4.78;;;;;;;25.96;51.40;99385.66;4416477;32;33627;-68
2023/07/16 02:09:18;;;;;;;8.65;4.62;;;;;;;25.88;51.67;99391.44;4430263;32;33636;-68
2023/07/16 02:11:46;;;;;;;8.23;4.32;;;;;;;25.88;51.67;99394.19;4435041;32;34280;-68
2023/07/16 02:14:14;;;;;;;7.62;4.50;;;;;;;25.98;51.50;99388.19;4434409;32;33191;-68
2023/07/16 02:16:42;;;;;;;7.18;4.93;;;;;;;25.96;51.48;99379.34;4429881;32;32588;-67
2023/07/16 02:19:10;;;;;;;8.18;5.25;;;;;;;25.76;52.03;99387.69;4424709;32;34052;-67
2023/07/16 02:21:38;;;;;;;9.85;5.45;;;;;;;25.88;51.72;99383.22;4435303;32;34374;-68
2023/07/16 02:24:06;;;;;;;6.25;4.03;;;;;;;25.89;51.65;99376.66;4433664;32;34400;-66
2023/07/16 02:26:34;;;;;;;5.05;3.87;;;;;;;25.90;51.59;99375.59;4431714;32;34158;-67
2023/07/16 02:29:01;;;;;;;6.68;4.22;;;;;;;25.77;52.03;99372.94;4431540;32;33983;-68
2023/07/16 02:31:29;;;;;;;8.55;4.95;;;;;;;25.82;51.87;99375.87;4431829;32;34459;-68
2023/07/16 02:33:56;;;;;;;8.07;4.57;;;;;;;25.85;51.74;99369.94;4435556;32;34237;-67
2023/07/16 02:36:24;;;;;;;9.85;4.75;;;;;;;25.83;51.75;99377.56;4433797;32;33723;-69
2023/07/16 02:38:51;;;;;;;6.37;4.20;;;;;;;25.78;51.88;99377.38;4435598;32;33719;-69
2023/07/16 02:41:19;;;;;;;6.05;4.32;;;;;;;25.82;51.69;99384.09;4432587;32;33827;-68
2023/07/16 02:43:47;;;;;;;6.60;4.57;;;;;;;25.82;51.81;99383.28;4434762;32;33410;-69
2023/07/16 02:46:14;;;;;;;8.40;4.90;;;;;;;25.82;51.73;99383.28;4435653;32;33571;-68
2023/07/16 02:48:42;;;;;;;7.00;4.55;;;;;;;25.77;51.82;99381.97;4434740;32;33803;-68
2023/07/16 02:51:10;;;;;;;12.20;4.75;;;;;;;25.77;52.16;99383.87;4435560;32;33734;-69
2023/07/16 02:53:38;;;;;;;13.13;5.35;;;;;;;25.79;52.12;99379.88;4435601;32;33353;-69
2023/07/16 02:56:05;;;;;;;6.87;4.35;;;;;;;25.79;52.12;99384.50;4434486;32;33968;-68
2023/07/16 02:58:33;;;;;;;7.40;4.65;;;;;;;25.77;52.09;99381.16;4432231;32;33496;-68
2023/07/16 03:01:01;;;;;;;9.55;5.35;;;;;;;25.77;52.03;99381.16;4435294;32;33549;-69
2023/07/16 03:03:29;;;;;;;7.80;5.05;;;;;;;25.75;52.20;99389.59;4436152;32;33394;-69
2023/07/16 03:06:02;;;;;;;7.57;4.28;;;;;;;25.70;52.72;99386.69;4434459;32;33873;-69
2023/07/16 03:08:31;;;;;;;7.90;5.62;;;;;;;25.83;52.41;99383.03;4434618;32;34902;-68
2023/07/16 03:10:59;;;;;;;9.52;5.20;;;;;;;25.76;52.66;99391.28;4434020;32;34618;-68
2023/07/16 03:13:26;;;;;;;7.60;4.43;;;;;;;25.83;52.21;99396.75;4435596;32;33353;-68
2023/07/16 03:15:54;;;;;;;8.55;4.70;;;;;;;25.92;52.00;99397.31;4434285;32;34582;-68
2023/07/16 03:18:22;;;;;;;9.15;4.30;;;;;;;25.93;51.66;99398.97;4432558;32;34925;-68
2023/07/16 03:20:49;;;;;;;8.10;5.15;;;;;;;25.84;51.78;99400.31;4435006;32;33604;-68
2023/07/16 03:23:17;;;;;;;6.70;4.65;;;;;;;25.70;52.25;99403.12;4436798;32;34415;-68
2023/07/16 03:25:44;;;;;;;8.07;4.12;;;;;;;25.87;51.75;99399.87;4436259;32;35009;-69
2023/07/16 03:28:13;;;;;;;7.50;4.55;;;;;;;25.89;51.65;99403.25;4436366;32;34033;-69
2023/07/16 03:30:48;;;;;;;7.65;5.15;;;;;;;25.91;51.53;99399.22;4437295;32;33188;-68
2023/07/16 03:33:16;;;;;;;6.40;3.78;;;;;;;25.95;51.50;99405.94;4437632;32;32960;-69
2023/07/16 03:35:45;;;;;;;11.70;4.22;;;;;;;25.99;51.78;99398.09;4435950;32;33535;-68
2023/07/16 03:38:13;;;;;;;7.45;4.90;;;;;;;25.94;52.33;99400.66;4435099;32;35021;-68
2023/07/16 03:40:46;;;;;;;7.60;4.60;;;;;;;25.99;52.34;99404.41;4436361;32;33410;-68
2023/07/16 03:43:14;;;;;;;6.30;4.55;;;;;;;26.05;52.41;99399.94;4436052;32;34355;-69
2023/07/16 03:45:42;;;;;;;9.90;6.70;;;;;;;26.20;52.09;99402.38;4435978;32;33807;-68
2023/07/16 03:48:10;;;;;;;10.48;5.25;;;;;;;26.29;52.03;99406.47;4435248;32;33926;-68
2023/07/16 03:50:39;;;;;;;7.43;4.53;;;;;;;26.36;52.00;99403.69;4436375;32;34496;-68
2023/07/16 03:53:06;;;;;;;6.60;5.20;;;;;;;26.51;51.72;99414.34;4436829;32;33246;-69
2023/07/16 03:55:35;;;;;;;8.73;5.57;;;;;;;26.50;51.95;99407.19;4433365;32;34520;-68
2023/07/16 03:58:03;;;;;;;9.70;5.43;;;;;;;26.52;52.02;99414.13;4433096;32;34178;-71
2023/07/16 04:00:32;;;;;;;6.10;4.55;;;;;;;26.67;51.61;99411.81;4434615;32;34897;-69
2023/07/16 04:03:00;;;;;;;8.63;4.85;;;;;;;26.79;51.36;99405.59;4435040;32;33113;-68
2023/07/16 04:05:28;;;;;;;9.48;5.05;;;;;;;26.88;51.29;99418.78;4433008;32;33987;-68
2023/07/16 04:07:55;;;;;;;8.15;4.62;;;;;;;26.82;51.69;99430.69;4437015;32;33883;-68
2023/07/16 04:10:23;;;;;;;8.18;4.80;;;;;;;26.95;51.38;99426.94;4437166;32;33958;-68
2023/07/16 04:12:51;;;;;;;7.47;4.85;;;;;;;27.05;51.22;99431.91;4437348;32;34070;-68
2023/07/16 04:15:18;;;;;;;7.95;4.70;;;;;;;27.09;50.89;99430.37;4435657;32;33793;-68
2023/07/16 04:17:46;;;;;;;7.65;4.43;;;;;;;27.03;51.26;99425.78;4435823;32;33829;-68
2023/07/16 04:20:14;;;;;;;8.48;4.75;;;;;;;27.22;50.90;99430.22;4435813;32;33588;-68
2023/07/16 04:22:41;;;;;;;11.60;5.68;;;;;;;27.19;50.71;99425.19;4436869;32;32849;-68
2023/07/16 04:25:09;;;;;;;8.95;5.37;;;;;;;27.15;50.34;99419.31;4434887;32;34153;-68
2023/07/16 04:27:37;;;;;;;8.02;5.15;;;;;;;26.95;50.91;99422.28;4464031;32;34584;-68
2023/07/16 04:30:05;;;;;;;9.43;4.93;;;;;;;27.18;50.60;99429.03;4465234;32;34498;-69
2023/07/16 04:32:33;;;;;;;6.97;4.45;;;;;;;27.22;50.64;99432.97;4462993;32;33383;-68
2023/07/16 04:35:01;;;;;;;9.48;5.28;;;;;;;27.29;50.61;99436.50;4462639;32;33533;-68
2023/07/16 04:37:28;;;;;;;8.55;4.47;;;;;;;27.28;50.62;99442.22;4463849;32;34247;-68
2023/07/16 04:39:56;;;;;;;9.68;5.97;;;;;;;27.23;50.45;99442.91;4462299;32;34512;-68
2023/07/16 04:42:24;;;;;;;10.98;5.90;;;;;;;27.36;50.20;99441.91;4464955;32;33221;-68
2023/07/16 04:44:51;;;;;;;8.77;5.30;;;;;;;27.49;49.82;99447.22;4465519;32;33610;-68
2023/07/16 04:47:19;;;;;;;10.02;5.70;;;;;;;27.23;50.05;99447.56;4464060;32;34059;-68
2023/07/16 04:49:47;;;;;;;6.37;4.57;;;;;;;26.93;50.81;99442.81;4464796;32;33150;-68
2023/07/16 04:52:14;;;;;;;8.05;4.72;;;;;;;27.06;50.62;99444.56;4466114;32;34583;-68
2023/07/16 04:54:42;;;;;;;7.30;4.78;;;;;;;27.12;50.45;99447.22;4464715;32;33321;-68
2023/07/16 04:57:09;;;;;;;8.45;4.95;;;;;;;27.35;49.91;99449.31;4461603;32;34172;-68
2023/07/16 04:59:37;;;;;;;8.32;5.35;;;;;;;27.23;50.02;99445.66;4463612;32;33714;-68
2023/07/16 05:02:05;;;;;;;7.97;5.03;;;;;;;27.04;50.91;99450.28;4449833;32;34090;-69
2023/07/16 05:04:36;;;;;;;7.40;4.30;;;;;;;26.92;51.28;99441.12;4457297;32;33594;-68
2023/07/16 05:07:04;;;;;;;11.15;5.72;;;;;;;27.11;50.40;99455.72;4435750;32;33989;-68
2023/07/16 05:09:32;;;;;;;8.20;5.07;;;;;;;27.13;50.73;99443.47;4433171;32;34282;-68
2023/07/16 05:11:59;;;;;;;7.95;5.07;;;;;;;27.18;50.67;99446.34;4436436;32;33175;-68
2023/07/16 05:14:28;;;;;;;9.55;5.28;;;;;;;27.32;50.16;99447.03;4434790;32;34911;-68
2023/07/16 05:16:56;;;;;;;8.57;5.20;;;;;;;27.48;50.35;99453.81;4429776;32;33859;-68
2023/07/16 05:19:24;;;;;;;9.43;5.12;;;;;;;27.24;50.41;99452.00;4436174;32;33874;-68
2023/07/16 05:21:52;;;;;;;6.62;4.37;;;;;;;27.55;49.79;99453.72;4435177;32;34445;-68
2023/07/16 05:24:19;;;;;;;10.77;4.30;;;;;;;27.68;50.01;99449.94;4435038;32;33710;-68
2023/07/16 05:26:47;;;;;;;7.95;5.32;;;;;;;27.56;49.39;99442.47;4433111;32;33870;-68
2023/07/16 05:29:15;;;;;;;8.10;5.28;;;;;;;27.45;49.62;99440.53;4430758;32;34111;-67
2023/07/16 05:31:42;;;;;;;7.37;4.55;;;;;;;27.46;49.86;99442.19;4433289;32;33154;-68
2023/07/16 05:34:10;;;;;;;10.32;4.78;;;;;;;27.21;50.24;99435.97;4436496;32;34030;-67
2023/07/16 05:36:38;;;;;;;6.70;4.12;;;;;;;27.41;50.14;99436.53;4433589;32;34050;-67
2023/07/16 05:39:05;;;;;;;8.63;4.62;;;;;;;27.61;49.87;99444.53;4434158;32;34703;-67
2023/07/16 05:41:33;;;;;;;10.18;4.85;;;;;;;27.36;50.03;99450.16;4436911;32;34120;-67
2023/07/16 05:44:01;;;;;;;7.00;4.22;;;;;;;27.59;49.29;99453.00;4434309;32;33511;-67
2023/07/16 05:46:28;;;;;;;11.70;4.85;;;;;;;27.71;49.02;99454.97;4433430;32;33643;-67
2023/07/16 05:48:56;;;;;;;8.20;4.65;;;;;;;27.70;49.44;99461.53;4433256;32;33652;-67
2023/07/16 05:51:24;;;;;;;7.62;4.28;;;;;;;28.05;48.06;99464.41;4436533;32;34195;-67
2023/07/16 05:53:51;;;;;;;10.77;4.90;;;;;;;28.13;48.29;99464.09;4435096;32;35503;-67
2023/07/16 05:56:19;;;;;;;8.10;4.93;;;;;;;28.17;47.74;99464.44;4432944;32;33899;-67
2023/07/16 05:58:46;;;;;;;8.73;4.82;;;;;;;27.99;48.30;99465.34;4433398;32;33649;-67
2023/07/16 06:01:14;;;;;;;7.90;4.97;;;;;;;28.11;48.00;99460.72;4434880;32;33440;-67
2023/07/16 06:03:42;;;;;;;9.43;4.40;;;;;;;27.82;48.15;99465.19;4433707;32;33854;-67
2023/07/16 06:06:09;;;;;;;6.62;4.18;;;;;;;28.08;47.95;99467.53;4435894;32;34009;-68
2023/07/16 06:08:37;;;;;;;7.32;4.82;;;;;;;27.99;47.72;99468.94;4435928;32;33911;-68
2023/07/16 06:11:05;;;;;;;7.65;4.60;;;;;;;28.31;47.08;99465.91;4423948;32;33635;-70
2023/07/16 06:13:33;;;;;;;6.75;4.55;;;;;;;28.61;46.77;99462.25;4431951;32;33741;-68
2023/07/16 06:16:00;;;;;;;7.30;4.55;;;;;;;28.67;46.38;99456.62;4434187;32;35828;-67
2023/07/16 06:18:28;;;;;;;7.85;4.30;;;;;;;28.61;46.45;99462.25;4430858;32;33874;-68
2023/07/16 06:20:56;;;;;;;10.25;4.72;;;;;;;28.76;45.77;99460.72;4425779;32;33520;-67
2023/07/16 06:23:23;;;;;;;6.60;4.37;;;;;;;28.80;46.75;99455.56;4433376;32;33619;-67
2023/07/16 06:25:55;;;;;;;6.30;4.70;;;;;;;28.79;46.11;99462.13;4433381;32;33514;-69
2023/07/16 06:28:23;;;;;;;11.95;4.65;;;;;;;28.70;45.76;99464.41;4433255;32;33743;-67
2023/07/16 06:30:52;;;;;;;6.62;4.47;;;;;;;28.22;47.67;99461.81;4433516;32;33454;-67
2023/07/16 06:33:19;;;;;;;8.35;4.35;;;;;;;28.55;46.43;99464.88;4434561;32;35166;-68
2023/07/16 06:35:47;;;;;;;8.23;4.45;;;;;;;28.69;46.18;99465.47;4435011;32;33908;-68
2023/07/16 06:38:15;;;;;;;10.77;4.12;;;;;;;28.89;46.08;99459.63;4434422;32;34543;-68
2023/07/16 06:40:48;;;;;;;8.23;4.70;;;;;;;29.16;45.49;99459.13;4434856;32;33122;-67
2023/07/16 06:43:16;;;;;;;7.37;4.75;;;;;;;29.31;44.64;99453.06;4432550;32;33415;-67
2023/07/16 06:45:44;;;;;;;8.10;4.70;;;;;;;28.97;44.89;99452.87;4426897;32;34908;-67
2023/07/16 06:48:11;;;;;;;11.65;5.10;;;;;;;28.85;45.15;99458.41;4433360;32;34919;-67
2023/07/16 06:50:39;;;;;;;10.25;4.87;;;;;;;28.54;45.63;99454.13;4433180;32;33508;-67
2023/07/16 06:53:07;;;;;;;8.77;4.65;;;;;;;28.47;45.98;99458.88;4431618;32;34034;-67
2023/07/16 06:55:34;;;;;;;8.13;4.75;;;;;;;28.69;45.64;99459.13;4434272;32;34905;-67
2023/07/16 06:58:02;;;;;;;10.57;4.47;;;;;;;28.87;45.46;99463.69;4431586;32;34772;-67
2023/07/16 07:00:30;;;;;;;10.70;4.68;;;;;;;28.97;45.14;99459.22;4430664;32;34181;-68
2023/07/16 07:02:58;;;;;;;7.22;4.15;;;;;;;28.99;45.32;99459.00;4434335;32;34791;-68
2023/07/16 07:05:26;;;;;;;7.12;4.60;;;;;;;29.51;45.47;99461.78;4446284;32;33852;-68
2023/07/16 07:07:53;;;;;;;10.25;4.55;;;;;;;29.47;44.53;99460.56;4426962;32;33685;-67
2023/07/16 07:10:21;;;;;;;5.85;4.25;;;;;;;29.75;43.28;99459.75;4436008;32;33147;-68
2023/07/16 07:12:48;;;;;;;8.25;4.93;;;;;;;29.62;44.10;99457.31;4435624;32;33613;-70
2023/07/16 07:15:16;;;;;;;8.15;4.97;;;;;;;29.75;44.25;99457.00;4436100;32;33619;-66
2023/07/16 07:17:46;;;;;;;7.95;3.95;;;;;;;29.87;43.16;99451.44;4436328;32;34634;-66
2023/07/16 07:20:14;;;;;;;6.60;4.60;;;;;;;29.82;43.24;99465.13;4437243;32;34447;-67
2023/07/16 07:22:41;;;;;;;6.72;4.47;;;;;;;29.83;42.74;99458.53;4437060;32;34035;-67
2023/07/16 07:25:09;;;;;;;9.23;5.28;;;;;;;29.82;42.45;99460.44;4444487;32;34904;-67
2023/07/16 07:27:37;;;;;;;9.20;5.50;;;;;;;29.78;43.10;99463.97;4434877;32;34485;-66
2023/07/16 07:30:05;;;;;;;8.75;5.03;;;;;;;29.77;43.31;99452.09;4435772;32;33802;-67
2023/07/16 07:32:33;;;;;;;19.60;4.90;;;;;;;30.12;42.86;99465.69;4434700;32;33654;-67
2023/07/16 07:35:01;;;;;;;8.38;4.78;;;;;;;29.67;43.14;99460.19;4434434;32;34224;-66
2023/07/16 07:37:30;;;;;;;6.25;4.12;;;;;;;30.28;42.40;99463.22;4436746;32;33864;-66
2023/07/16 07:39:58;;;;;;;8.07;4.70;;;;;;;30.52;41.64;99458.34;4435646;32;33080;-66
2023/07/16 07:42:27;;;;;;;5.75;4.15;;;;;;;30.64;42.47;99462.69;4436395;32;33454;-65
2023/07/16 07:44:57;;;;;;;7.85;3.75;;;;;;;30.78;40.47;99451.31;4435942;32;34145;-66
2023/07/16 07:47:25;;;;;;;7.72;4.20;;;;;;;30.43;41.06;99448.81;4437897;32;33784;-67
2023/07/16 07:49:53;;;;;;;6.10;3.70;;;;;;;30.82;41.07;99445.06;4430340;32;33310;-65
2023/07/16 07:52:20;;;;;;;6.05;3.55;;;;;;;31.15;40.82;99453.50;4427663;32;33515;-66
2023/07/16 07:54:48;;;;;;;8.05;4.85;;;;;;;31.42;39.13;99454.41;4431502;32;33276;-65
2023/07/16 07:57:16;;;;;;;5.78;3.55;;;;;;;31.40;39.95;99441.97;4431733;32;34008;-66
2023/07/16 07:59:45;;;;;;;7.78;3.97;;;;;;;31.45;40.09;99450.28;4434673;32;33349;-65
2023/07/16 08:02:12;;;;;;;6.72;4.12;;;;;;;31.51;39.04;99452.03;4434150;32;34682;-66
2023/07/16 08:04:40;;;;;;;7.35;3.65;;;;;;;31.72;38.67;99451.16;4432043;32;34914;-65
2023/07/16 08:07:08;;;;;;;9.52;4.35;;;;;;;31.09;39.33;99455.34;4427876;32;35504;-66
2023/07/16 08:09:37;;;;;;;7.50;3.97;;;;;;;31.36;39.05;99446.31;4427531;32;33040;-66
2023/07/16 08:12:05;;;;;;;5.60;3.53;;;;;;;31.71;39.18;99446.72;4425212;32;33457;-66
2023/07/16 08:14:33;;;;;;;8.93;4.57;;;;;;;31.84;37.86;99448.22;4431562;32;33829;-65
2023/07/16 08:17:00;;;;;;;9.63;3.75;;;;;;;31.71;38.69;99443.94;4432418;32;33596;-66
2023/07/16 08:19:28;;;;;;;9.27;4.32;;;;;;;31.69;38.56;99445.31;4433064;32;34406;-66
2023/07/16 08:21:56;;;;;;;7.65;3.85;;;;;;;31.94;38.22;99447.53;4435524;32;34928;-65
2023/07/16 08:24:25;;;;;;;7.20;4.40;;;;;;;32.18;37.36;99453.56;4431021;32;34939;-65
2023/07/16 08:26:53;;;;;;;9.60;4.53;;;;;;;31.57;38.38;99451.00;4434939;32;33888;-64
2023/07/16 08:29:20;;;;;;;10.15;4.18;;;;;;;31.53;40.37;99453.44;4430961;32;33199;-65
2023/07/16 08:31:48;;;;;;;9.00;4.55;;;;;;;31.50;39.52;99444.84;4424592;32;32713;-65
2023/07/16 08:34:16;;;;;;;10.30;4.50;;;;;;;32.10;39.05;99443.78;4428589;32;34043;-65
2023/07/16 08:36:44;;;;;;;6.00;3.62;;;;;;;32.17;39.69;99447.19;4426916;32;34668;-65
2023/07/16 08:39:12;;;;;;;7.87;5.03;;;;;;;32.24;39.10;99446.97;4422986;32;34060;-65
2023/07/16 08:41:39;;;;;;;7.18;4.30;;;;;;;32.38;39.39;99445.41;4428217;32;34613;-66
2023/07/16 08:44:07;;;;;;;7.72;4.57;;;;;;;32.60;37.95;99438.97;4426689;32;33846;-65
2023/07/16 08:46:35;;;;;;;6.35;4.25;;;;;;;32.61;38.09;99440.62;4438621;32;33528;-65
2023/07/16 08:49:03;;;;;;;7.22;4.62;;;;;;;32.48;38.31;99447.47;4427483;32;33186;-66
2023/07/16 08:51:31;;;;;;;7.30;4.15;;;;;;;32.50;39.40;99449.97;4427099;32;35088;-65
2023/07/16 08:53:58;;;;;;;7.93;5.37;;;;;;;32.85;38.39;99454.91;4445427;32;34293;-66
2023/07/16 08:56:27;;;;;;;6.68;4.90;;;;;;;32.85;37.78;99455.75;4428189;32;34581;-66
2023/07/16 08:58:57;;;;;;;10.77;5.60;;;;;;;32.79;37.92;99454.06;4428858;32;33147;-66
2023/07/16 09:01:25;;;;;;;9.15;5.00;;;;;;;32.84;37.95;99453.22;4431368;32;34928;-65
2023/07/16 09:03:53;;;;;;;12.85;5.05;;;;;;;32.70;37.63;99455.66;4430008;32;33971;-66
2023/07/16 09:06:21;;;;;;;8.55;4.82;;;;;;;32.22;39.37;99460.25;4428316;32;33744;-66
2023/07/16 09:08:49;;;;;;;9.10;5.12;;;;;;;32.28;39.24;99463.91;4432439;32;33410;-65
2023/07/16 09:11:21;;;;;;;8.52;5.40;;;;;;;32.90;38.11;99457.72;4427720;32;32543;-65
2023/07/16 09:13:49;;;;;;;10.68;5.18;;;;;;;33.12;38.06;99452.87;4431477;32;33793;-65
2023/07/16 09:16:21;;;;;;;9.05;5.30;;;;;;;33.47;37.07;99448.56;4427070;32;35906;-65
2023/07/16 09:18:48;;;;;;;5.90;4.62;;;;;;;33.34;36.61;99451.84;4425078;32;33546;-65
2023/07/16 09:21:16;;;;;;;11.35;5.65;;;;;;;33.24;36.61;99447.09;4423830;32;33351;-65
2023/07/16 09:23:44;;;;;;;8.27;5.32;;;;;;;33.37;37.67;99454.91;4428856;32;35305;-66
2023/07/16 09:26:11;;;;;;;6.25;4.50;;;;;;;33.80;36.94;99449.22;4430168;32;33750;-66
2023/07/16 09:28:39;;;;;;;12.32;5.30;;;;;;;33.90;36.20;99443.69;4428732;32;33315;-66
2023/07/16 09:31:07;;;;;;;8.68;5.35;;;;;;;33.68;36.67;99443.09;4431015;32;33728;-65
2023/07/16 09:33:35;;;;;;;11.63;5.90;;;;;;;33.13;36.17;99437.91;4430787;32;34048;-66
2023/07/16 09:36:03;;;;;;;8.25;5.95;;;;;;;33.11;36.65;99450.38;4425025;32;35257;-65
2023/07/16 09:38:32;;;;;;;9.60;5.30;;;;;;;33.49;35.92;99443.63;4426431;32;32918;-65
2023/07/16 09:40:59;;;;;;;7.68;4.80;;;;;;;33.82;35.14;99447.03;4429701;32;33867;-66
2023/07/16 09:43:27;;;;;;;7.55;5.65;;;;;;;33.75;35.79;99450.06;4440972;32;34857;-66
2023/07/16 09:45:55;;;;;;;9.25;5.35;;;;;;;33.62;36.25;99451.44;4425584;32;33564;-65
2023/07/16 09:48:22;;;;;;;8.55;5.30;;;;;;;33.89;34.92;99449.53;4431594;32;34062;-66
2023/07/16 09:50:52;;;;;;;6.87;5.03;;;;;;;34.25;34.96;99440.12;4427708;32;34602;-65
2023/07/16 09:53:21;;;;;;;10.70;4.55;;;;;;;33.74;35.29;99448.41;4440772;32;32488;-66
2023/07/16 09:55:51;;;;;;;8.00;5.40;;;;;;;34.07;34.20;99446.25;4427735;32;33453;-65
2023/07/16 09:58:20;;;;;;;7.57;5.43;;;;;;;34.03;35.59;99446.00;4435986;32;32857;-65
2023/07/16 10:00:48;;;;;;;9.45;5.15;;;;;;;34.64;34.62;99441.53;4428105;32;33903;-66
2023/07/16 10:03:19;;;;;;;9.00;5.07;;;;;;;34.89;34.34;99440.62;4427679;32;34059;-65
2023/07/16 10:05:47;;;;;;;9.63;5.95;;;;;;;34.93;33.59;99442.59;4428652;32;33340;-66
2023/07/16 10:08:17;;;;;;;7.90;5.75;;;;;;;35.24;32.59;99434.16;4430083;32;33193;-66
2023/07/16 10:10:53;;;;;;;7.70;5.90;;;;;;;35.31;32.71;99431.88;4432428;32;35389;-69
2023/07/16 10:13:22;;;;;;;7.75;4.72;;;;;;;35.11;32.89;99424.47;4424479;32;33577;-67
2023/07/16 10:15:52;;;;;;;9.30;4.87;;;;;;;35.49;32.84;99421.25;4431202;32;33642;-65
2023/07/16 10:18:38;;;;;;;9.70;5.15;;;;;;;35.65;32.56;99418.09;4432050;32;33193;-66
2023/07/16 10:21:07;;;;;;;10.43;4.60;;;;;;;35.71;32.50;99418.91;4424410;32;33593;-67
2023/07/16 10:23:42;;;;;;;8.00;5.55;;;;;;;35.61;32.60;99427.31;4430869;32;32706;-67
2023/07/16 10:26:13;;;;;;;7.53;5.15;;;;;;;35.26;33.05;99429.13;4429152;32;34595;-67
2023/07/16 10:28:45;;;;;;;10.23;5.62;;;;;;;35.49;32.53;99424.03;4433907;32;32940;-67
2023/07/16 10:31:22;;;;;;;8.70;5.18;;;;;;;35.54;32.99;99418.44;4431704;32;33776;-66
2023/07/16 10:34:16;;;;;;;11.55;5.20;;;;;;;35.13;33.43;99421.41;4427128;32;34187;-67
2023/07/16 10:36:44;;;;;;;8.18;5.25;;;;;;;35.15;32.65;99425.56;4412524;32;33548;-67
2023/07/16 10:39:11;;;;;;;6.78;5.10;;;;;;;34.88;33.22;99417.56;4415458;32;33161;-66
2023/07/16 10:41:39;;;;;;;7.70;4.80;;;;;;;35.06;33.98;99418.94;4428609;32;34789;-67
2023/07/16 10:44:13;;;;;;;10.13;5.40;;;;;;;35.13;33.47;99415.84;4416750;32;35215;-66
2023/07/16 10:46:44;;;;;;;8.07;5.40;;;;;;;35.23;33.07;99418.59;4415718;32;33606;-66
2023/07/16 10:49:12;;;;;;;7.93;4.57;;;;;;;34.96;33.59;99422.56;4414790;32;34515;-66
2023/07/16 10:51:39;;;;;;;7.32;4.80;;;;;;;35.30;32.63;99416.31;4413760;32;33376;-67
2023/07/16 10:54:07;;;;;;;7.80;4.70;;;;;;;35.34;33.11;99425.75;4415256;32;34322;-66
2023/07/16 10:56:36;;;;;;;8.25;4.75;;;;;;;35.16;33.13;99426.41;4414064;32;34784;-67
2023/07/16 10:59:04;;;;;;;7.87;4.85;;;;;;;35.21;32.83;99416.06;4400971;32;34181;-67
2023/07/16 11:01:33;;;;;;;10.98;5.00;;;;;;;35.68;32.46;99422.25;4415512;32;33809;-67
2023/07/16 11:04:01;;;;;;;8.07;4.72;;;;;;;35.42;33.77;99416.81;4416626;32;34498;-67
2023/07/16 11:06:29;;;;;;;9.05;5.00;;;;;;;34.89;33.82;99421.19;4415179;32;33855;-66
2023/07/16 11:09:06;;;;;;;9.45;5.20;;;;;;;35.17;33.38;99414.16;4414780;32;34579;-67
2023/07/16 11:11:34;;;;;;;8.18;4.25;;;;;;;35.24;33.09;99411.91;4413650;32;34304;-67
2023/07/16 11:14:05;;;;;;;8.05;4.07;;;;;;;34.90;33.18;99404.22;4419367;32;33733;-67
2023/07/16 11:16:37;;;;;;;7.18;4.62;;;;;;;34.54;33.14;99409.88;4432721;32;35497;-67
2023/07/16 11:19:05;;;;;;;7.40;5.03;;;;;;;35.30;32.94;99405.19;4433027;32;34232;-67
2023/07/16 11:21:33;;;;;;;8.60;4.65;;;;;;;35.03;33.48;99408.38;4433175;32;33530;-67
2023/07/16 11:24:12;;;;;;;7.15;4.25;;;;;;;34.98;32.45;99411.97;4430794;32;34901;-67
2023/07/16 11:26:40;;;;;;;6.43;3.72;;;;;;;34.84;33.17;99404.53;4429991;32;33687;-67
2023/07/16 11:29:15;;;;;;;6.82;3.90;;;;;;;35.39;31.71;99406.25;4433720;32;33308;-68
2023/07/16 11:31:43;;;;;;;8.63;4.28;;;;;;;35.59;31.74;99401.72;4429362;32;33431;-67
2023/07/16 11:34:14;;;;;;;7.85;4.90;;;;;;;35.66;31.95;99397.50;4431215;32;34946;-67
2023/07/16 11:36:41;;;;;;;9.90;4.80;;;;;;;35.30;32.41;99401.59;4433038;32;33920;-67
2023/07/16 11:39:11;;;;;;;8.20;4.45;;;;;;;35.33;31.85;99406.56;4430398;32;35002;-70